Sutherland Springs, TX (78161)

3:27 PM CDT on September 17, 2014 (GMT -0500)
Lake Valley Dr. | Change Station
CLOSE
Current Station
Personal Weather Station
Location: La Vernia, TX
Elevation: 597 ft
Nearby Weather Stations

Elev 597 ft 29.35 °N, 98.04 °W | Updated 4 minutes ago

Partly Cloudy
Partly Cloudy
87.8 °F
Feels Like 98 °F
N
5.0
Wind Variable Wind from SSE
Gusts 8.0 mph

Today
High -- | Low -- °F
--% Chance of Precip.
Yesterday
High -- | Low -- °F
Precip. -- in
7:18 AM 7:34 PM
Waning Crescent, 33% visible
Pressure 29.88 in
Visibility 10.0 miles
Clouds Few 3700 ft
Scattered Clouds 4400 ft
Mostly Cloudy 9500 ft
Heat Index 98 °F
Dew Point 75 °F
Humidity 66%
Rainfall 0.00 in
Snow Depth Not available.
UV 5 out of 12
Pollen 8.70 out of 12
Ozone Good
PM2.5 Good
Flu Activity Not available.
METAR KRND 171958Z AUTO 22007KT 10SM FEW037 SCT044 BKN095 31/21 A2990 RMK AO2 LTG DSNT W SLP116 T03060212

More Conditions Fewer Conditions

Pressure 29.88 in
Visibility 10.0 miles
Clouds Few 3700 ft
Scattered Clouds 4400 ft
Mostly Cloudy 9500 ft
Heat Index 98 °F
Dew Point 75 °F
Humidity 66%
Rainfall 0.00 in
Snow Depth Not available.
UV 5 out of 12
Pollen 8.70 out of 12
Ozone Good
PM2.5 Good
Flu Activity Not available.
METAR KRND 171958Z AUTO 22007KT 10SM FEW037 SCT044 BKN095 31/21 A2990 RMK AO2 LTG DSNT W SLP116 T03060212

More Conditions Fewer Conditions

Nowcast | as of 3:00 PM CDT on September 17, 2014

Through 5 PM...isolated showers will move toward the north. These showers will produce moderate rain with rainfall totals up to half an inch. Some of these showers will develop into thunderstorms and produce occasional lightning.

×

10-Day Weather Forecast

Almanac

Astronomy

Sep. 17, 2014 Rise Set
Actual Time 7:18 AM CDT 7:34 PM CDT
Civil Twilight 6:54 AM CDT 7:58 PM CDT
Nautical Twilight 6:26 AM CDT 8:26 PM CDT
Astronomical Twilight 5:58 AM CDT 8:54 PM CDT
Moon 1:38 AM CDT 3:27 PM CDT
Length of Visible Light 13h 04m
Length of Day
12h 16m
Tomorrow will be 1m 45s shorter.
Waning Crescent, 33% of the Moon is Illuminated
Today
Waning Crescent
Sep 24
New
Oct 1
First Quarter
Oct 8
Full
Oct 15
Last Quarter

Today's Extremes

State Highs State Lows

Community

WunderPhotos

Upload Photos

1,754,157 photos uploaded!

Nearby

Air Quality

  Air Quality AQ Index Pollutant
Yesterday Good
PM2.5
Yesterday Good
OZONE
Current Good
OZONE
Current Good
PM2.5
Wednesday Good
OZONE
Wednesday Good
PM10
Thursday Good
OZONE
Thursday Good
PM10
Friday Good
PM10
Friday Good
OZONE
Saturday Good
OZONE
Saturday Good
PM10

Snow Depth

Station Depth Elevation
No new snow has been reported.

Earthquake Activity

City Distance Mag. Time & Date
No recent earthquake activity has been reported nearby.
Minimum magnitude displayed is 2.5.

Coastal Water Temperatures

Place Temperature
No Stations Reporting

Nearby Weather Stations